Terminal Aerodrome Forecast
Issued by NWS

Current Version | Previous Version | Graphics & Text | Print | Product List | Glossary On
Versions: 1 2 3 4 5 6 7 8 9 10 11 12 13 14 15 16 17 18
988
FTUS41 KILN 272330
TAFLUK
TAF
KLUK 272330Z 2800/2824 30004KT P6SM FEW080
     FM280300 00000KT P6SM SKC
     FM280600 00000KT 4SM BR SKC
      TEMPO 2808/2811 1SM BR
     FM281200 00000KT P6SM FEW250
     FM281600 18008KT P6SM SCT250=

USA.gov is the U.S. government's official web portal to all federal, state and local government web resources and services.